sensor_id;sensor_type;location;lat;lon;timestamp;P1;durP1;ratioP1;P2;durP2;ratioP2
44120;SDS011;29783;52.504;13.478;2023-02-28T00:01:20;7.25;;;2.60;;
44120;SDS011;29783;52.504;13.478;2023-02-28T00:03:46;4.80;;;2.78;;
44120;SDS011;29783;52.504;13.478;2023-02-28T00:06:12;4.43;;;2.30;;
44120;SDS011;29783;52.504;13.478;2023-02-28T00:08:38;6.13;;;2.95;;
44120;SDS011;29783;52.504;13.478;2023-02-28T00:11:06;5.85;;;2.45;;
44120;SDS011;29783;52.504;13.478;2023-02-28T00:13:34;7.03;;;2.35;;
44120;SDS011;29783;52.504;13.478;2023-02-28T00:16:05;5.97;;;2.38;;
44120;SDS011;29783;52.504;13.478;2023-02-28T00:18:39;3.88;;;2.38;;
44120;SDS011;29783;52.504;13.478;2023-02-28T00:21:06;5.97;;;2.60;;
44120;SDS011;29783;52.504;13.478;2023-02-28T00:23:32;4.82;;;2.22;;
44120;SDS011;29783;52.504;13.478;2023-02-28T00:25:58;6.70;;;2.60;;
44120;SDS011;29783;52.504;13.478;2023-02-28T00:28:24;4.40;;;2.25;;
44120;SDS011;29783;52.504;13.478;2023-02-28T00:30:50;4.68;;;2.42;;
44120;SDS011;29783;52.504;13.478;2023-02-28T00:33:16;6.75;;;2.60;;
44120;SDS011;29783;52.504;13.478;2023-02-28T00:35:42;4.78;;;2.40;;
44120;SDS011;29783;52.504;13.478;2023-02-28T00:38:11;4.05;;;2.38;;
44120;SDS011;29783;52.504;13.478;2023-02-28T00:40:38;11.43;;;2.58;;
44120;SDS011;29783;52.504;13.478;2023-02-28T00:43:03;6.30;;;2.88;;
44120;SDS011;29783;52.504;13.478;2023-02-28T00:45:30;6.25;;;2.60;;
44120;SDS011;29783;52.504;13.478;2023-02-28T00:47:55;6.65;;;2.55;;
44120;SDS011;29783;52.504;13.478;2023-02-28T00:50:21;7.70;;;3.05;;
44120;SDS011;29783;52.504;13.478;2023-02-28T00:52:47;7.38;;;2.90;;
44120;SDS011;29783;52.504;13.478;2023-02-28T00:55:14;4.18;;;2.45;;
44120;SDS011;29783;52.504;13.478;2023-02-28T00:57:40;7.43;;;3.00;;
44120;SDS011;29783;52.504;13.478;2023-02-28T01:00:06;4.55;;;2.58;;
44120;SDS011;29783;52.504;13.478;2023-02-28T01:02:33;6.78;;;2.78;;
44120;SDS011;29783;52.504;13.478;2023-02-28T01:04:59;5.55;;;2.97;;
44120;SDS011;29783;52.504;13.478;2023-02-28T01:07:25;6.28;;;2.55;;
44120;SDS011;29783;52.504;13.478;2023-02-28T01:09:51;5.75;;;3.05;;
44120;SDS011;29783;52.504;13.478;2023-02-28T01:12:17;5.95;;;2.97;;
44120;SDS011;29783;52.504;13.478;2023-02-28T01:14:43;8.63;;;2.50;;
44120;SDS011;29783;52.504;13.478;2023-02-28T01:17:09;8.10;;;3.08;;
44120;SDS011;29783;52.504;13.478;2023-02-28T01:19:35;7.93;;;2.67;;
44120;SDS011;29783;52.504;13.478;2023-02-28T01:22:02;4.90;;;2.92;;
44120;SDS011;29783;52.504;13.478;2023-02-28T01:24:29;5.45;;;2.92;;
44120;SDS011;29783;52.504;13.478;2023-02-28T01:26:55;8.15;;;3.20;;
44120;SDS011;29783;52.504;13.478;2023-02-28T01:29:21;5.93;;;3.20;;
44120;SDS011;29783;52.504;13.478;2023-02-28T01:31:47;5.75;;;3.00;;
44120;SDS011;29783;52.504;13.478;2023-02-28T01:34:12;7.72;;;3.40;;
44120;SDS011;29783;52.504;13.478;2023-02-28T01:36:38;5.10;;;3.17;;
44120;SDS011;29783;52.504;13.478;2023-02-28T01:39:04;11.05;;;3.58;;
44120;SDS011;29783;52.504;13.478;2023-02-28T01:41:31;6.45;;;2.97;;
44120;SDS011;29783;52.504;13.478;2023-02-28T01:46:24;4.88;;;3.00;;
44120;SDS011;29783;52.504;13.478;2023-02-28T01:48:59;8.27;;;2.90;;
44120;SDS011;29783;52.504;13.478;2023-02-28T01:54:05;6.90;;;2.90;;
44120;SDS011;29783;52.504;13.478;2023-02-28T01:56:39;9.02;;;3.63;;
44120;SDS011;29783;52.504;13.478;2023-02-28T01:59:31;6.47;;;3.03;;
44120;SDS011;29783;52.504;13.478;2023-02-28T02:02:03;7.00;;;3.42;;
44120;SDS011;29783;52.504;13.478;2023-02-28T02:04:34;10.77;;;3.50;;
44120;SDS011;29783;52.504;13.478;2023-02-28T02:07:20;5.32;;;3.38;;
44120;SDS011;29783;52.504;13.478;2023-02-28T02:09:47;7.60;;;3.33;;
44120;SDS011;29783;52.504;13.478;2023-02-28T02:12:39;10.10;;;3.78;;
44120;SDS011;29783;52.504;13.478;2023-02-28T02:15:08;7.28;;;3.30;;
44120;SDS011;29783;52.504;13.478;2023-02-28T02:17:42;7.97;;;3.97;;
44120;SDS011;29783;52.504;13.478;2023-02-28T02:23:20;9.68;;;3.53;;
44120;SDS011;29783;52.504;13.478;2023-02-28T02:39:31;6.65;;;3.38;;
44120;SDS011;29783;52.504;13.478;2023-02-28T02:42:15;6.47;;;3.40;;
44120;SDS011;29783;52.504;13.478;2023-02-28T02:44:50;8.15;;;3.50;;
44120;SDS011;29783;52.504;13.478;2023-02-28T02:47:24;9.20;;;3.72;;
44120;SDS011;29783;52.504;13.478;2023-02-28T02:49:55;9.57;;;3.92;;
44120;SDS011;29783;52.504;13.478;2023-02-28T02:52:25;7.70;;;3.95;;
44120;SDS011;29783;52.504;13.478;2023-02-28T02:55:06;7.88;;;3.72;;
44120;SDS011;29783;52.504;13.478;2023-02-28T02:57:38;7.03;;;3.58;;
44120;SDS011;29783;52.504;13.478;2023-02-28T03:00:18;9.75;;;3.60;;
44120;SDS011;29783;52.504;13.478;2023-02-28T03:02:50;7.28;;;4.18;;
44120;SDS011;29783;52.504;13.478;2023-02-28T03:05:30;5.95;;;3.35;;
44120;SDS011;29783;52.504;13.478;2023-02-28T03:08:14;10.20;;;4.00;;
44120;SDS011;29783;52.504;13.478;2023-02-28T03:10:41;11.15;;;3.70;;
44120;SDS011;29783;52.504;13.478;2023-02-28T03:13:22;7.82;;;3.92;;
44120;SDS011;29783;52.504;13.478;2023-02-28T03:16:19;8.10;;;3.78;;
44120;SDS011;29783;52.504;13.478;2023-02-28T03:19:13;7.28;;;3.55;;
44120;SDS011;29783;52.504;13.478;2023-02-28T03:26:58;7.07;;;3.88;;
44120;SDS011;29783;52.504;13.478;2023-02-28T03:29:43;8.60;;;3.95;;
44120;SDS011;29783;52.504;13.478;2023-02-28T03:35:09;11.10;;;4.13;;
44120;SDS011;29783;52.504;13.478;2023-02-28T03:37:46;10.88;;;4.40;;
44120;SDS011;29783;52.504;13.478;2023-02-28T03:40:19;9.35;;;4.10;;
44120;SDS011;29783;52.504;13.478;2023-02-28T03:42:49;9.40;;;4.45;;
44120;SDS011;29783;52.504;13.478;2023-02-28T03:45:29;7.28;;;3.80;;
44120;SDS011;29783;52.504;13.478;2023-02-28T03:47:59;8.07;;;4.28;;
44120;SDS011;29783;52.504;13.478;2023-02-28T03:50:34;8.38;;;4.28;;
44120;SDS011;29783;52.504;13.478;2023-02-28T03:55:39;12.50;;;3.90;;
44120;SDS011;29783;52.504;13.478;2023-02-28T03:58:18;8.40;;;4.43;;
44120;SDS011;29783;52.504;13.478;2023-02-28T04:01:40;9.95;;;4.53;;
44120;SDS011;29783;52.504;13.478;2023-02-28T04:03:51;8.20;;;4.45;;
44120;SDS011;29783;52.504;13.478;2023-02-28T04:06:18;8.30;;;4.40;;
44120;SDS011;29783;52.504;13.478;2023-02-28T04:08:46;8.88;;;4.22;;
44120;SDS011;29783;52.504;13.478;2023-02-28T04:11:35;8.25;;;4.60;;
44120;SDS011;29783;52.504;13.478;2023-02-28T04:14:05;8.23;;;4.20;;
44120;SDS011;29783;52.504;13.478;2023-02-28T04:16:34;6.85;;;3.70;;
44120;SDS011;29783;52.504;13.478;2023-02-28T04:19:03;8.32;;;4.20;;
44120;SDS011;29783;52.504;13.478;2023-02-28T04:21:33;9.13;;;4.80;;
44120;SDS011;29783;52.504;13.478;2023-02-28T04:24:01;8.77;;;4.43;;
44120;SDS011;29783;52.504;13.478;2023-02-28T04:26:33;10.40;;;4.82;;
44120;SDS011;29783;52.504;13.478;2023-02-28T04:29:09;13.05;;;4.28;;
44120;SDS011;29783;52.504;13.478;2023-02-28T04:31:45;10.55;;;4.25;;
44120;SDS011;29783;52.504;13.478;2023-02-28T04:34:11;10.63;;;5.07;;
44120;SDS011;29783;52.504;13.478;2023-02-28T04:36:37;12.30;;;5.07;;
44120;SDS011;29783;52.504;13.478;2023-02-28T04:39:03;9.05;;;4.35;;
44120;SDS011;29783;52.504;13.478;2023-02-28T04:41:29;9.95;;;4.88;;
44120;SDS011;29783;52.504;13.478;2023-02-28T04:43:55;8.07;;;4.47;;
44120;SDS011;29783;52.504;13.478;2023-02-28T04:46:21;14.25;;;4.90;;
44120;SDS011;29783;52.504;13.478;2023-02-28T04:48:47;13.18;;;5.10;;
44120;SDS011;29783;52.504;13.478;2023-02-28T04:51:14;8.18;;;4.95;;
44120;SDS011;29783;52.504;13.478;2023-02-28T04:53:42;7.13;;;4.22;;
44120;SDS011;29783;52.504;13.478;2023-02-28T04:56:09;11.20;;;4.50;;
44120;SDS011;29783;52.504;13.478;2023-02-28T04:58:37;11.55;;;4.78;;
44120;SDS011;29783;52.504;13.478;2023-02-28T05:01:06;9.88;;;4.85;;
44120;SDS011;29783;52.504;13.478;2023-02-28T05:03:42;5.55;;;4.10;;
44120;SDS011;29783;52.504;13.478;2023-02-28T05:06:09;9.20;;;4.75;;
44120;SDS011;29783;52.504;13.478;2023-02-28T05:08:36;11.82;;;5.60;;
44120;SDS011;29783;52.504;13.478;2023-02-28T05:11:02;19.58;;;6.05;;
44120;SDS011;29783;52.504;13.478;2023-02-28T05:13:29;8.48;;;4.28;;
44120;SDS011;29783;52.504;13.478;2023-02-28T05:15:55;9.90;;;5.10;;
44120;SDS011;29783;52.504;13.478;2023-02-28T05:18:21;10.30;;;4.95;;
44120;SDS011;29783;52.504;13.478;2023-02-28T05:20:47;9.98;;;4.95;;
44120;SDS011;29783;52.504;13.478;2023-02-28T05:23:14;5.80;;;3.92;;
44120;SDS011;29783;52.504;13.478;2023-02-28T05:25:42;9.13;;;4.97;;
44120;SDS011;29783;52.504;13.478;2023-02-28T05:28:08;12.45;;;4.65;;
44120;SDS011;29783;52.504;13.478;2023-02-28T05:30:33;8.80;;;4.53;;
44120;SDS011;29783;52.504;13.478;2023-02-28T05:32:59;12.43;;;5.22;;
44120;SDS011;29783;52.504;13.478;2023-02-28T05:35:25;10.30;;;4.85;;
44120;SDS011;29783;52.504;13.478;2023-02-28T05:37:51;7.88;;;4.70;;
44120;SDS011;29783;52.504;13.478;2023-02-28T05:40:17;11.05;;;5.10;;
44120;SDS011;29783;52.504;13.478;2023-02-28T05:42:45;10.63;;;4.97;;
44120;SDS011;29783;52.504;13.478;2023-02-28T05:45:12;9.43;;;5.10;;
44120;SDS011;29783;52.504;13.478;2023-02-28T05:47:38;8.13;;;5.10;;
44120;SDS011;29783;52.504;13.478;2023-02-28T05:50:04;29.73;;;5.88;;
44120;SDS011;29783;52.504;13.478;2023-02-28T05:52:31;14.80;;;5.10;;
44120;SDS011;29783;52.504;13.478;2023-02-28T05:54:57;19.38;;;5.07;;
44120;SDS011;29783;52.504;13.478;2023-02-28T05:57:23;15.93;;;5.38;;
44120;SDS011;29783;52.504;13.478;2023-02-28T05:59:50;30.73;;;5.60;;
44120;SDS011;29783;52.504;13.478;2023-02-28T06:02:16;12.48;;;5.28;;
44120;SDS011;29783;52.504;13.478;2023-02-28T06:04:43;20.98;;;6.35;;
44120;SDS011;29783;52.504;13.478;2023-02-28T06:07:09;12.45;;;5.57;;
44120;SDS011;29783;52.504;13.478;2023-02-28T06:09:35;19.83;;;6.30;;
44120;SDS011;29783;52.504;13.478;2023-02-28T06:12:02;20.10;;;5.30;;
44120;SDS011;29783;52.504;13.478;2023-02-28T06:14:31;17.13;;;5.57;;
44120;SDS011;29783;52.504;13.478;2023-02-28T06:16:58;10.88;;;5.72;;
44120;SDS011;29783;52.504;13.478;2023-02-28T06:19:25;27.83;;;5.82;;
44120;SDS011;29783;52.504;13.478;2023-02-28T06:21:51;15.60;;;5.38;;
44120;SDS011;29783;52.504;13.478;2023-02-28T06:24:21;13.55;;;5.93;;
44120;SDS011;29783;52.504;13.478;2023-02-28T06:26:48;14.30;;;6.00;;
44120;SDS011;29783;52.504;13.478;2023-02-28T06:29:14;14.65;;;5.68;;
44120;SDS011;29783;52.504;13.478;2023-02-28T06:31:46;12.63;;;5.55;;
44120;SDS011;29783;52.504;13.478;2023-02-28T06:34:13;9.82;;;5.35;;
44120;SDS011;29783;52.504;13.478;2023-02-28T06:36:39;11.82;;;5.43;;
44120;SDS011;29783;52.504;13.478;2023-02-28T06:39:06;14.30;;;5.75;;
44120;SDS011;29783;52.504;13.478;2023-02-28T06:41:33;16.08;;;6.28;;
44120;SDS011;29783;52.504;13.478;2023-02-28T06:44:05;15.32;;;5.93;;
44120;SDS011;29783;52.504;13.478;2023-02-28T06:46:36;12.35;;;5.35;;
44120;SDS011;29783;52.504;13.478;2023-02-28T06:49:03;12.60;;;5.53;;
44120;SDS011;29783;52.504;13.478;2023-02-28T06:51:30;11.27;;;5.50;;
44120;SDS011;29783;52.504;13.478;2023-02-28T06:53:55;20.88;;;6.07;;
44120;SDS011;29783;52.504;13.478;2023-02-28T06:56:21;12.52;;;5.45;;
44120;SDS011;29783;52.504;13.478;2023-02-28T06:58:50;18.55;;;5.75;;
44120;SDS011;29783;52.504;13.478;2023-02-28T07:01:17;13.90;;;5.30;;
44120;SDS011;29783;52.504;13.478;2023-02-28T07:03:44;12.52;;;6.28;;
44120;SDS011;29783;52.504;13.478;2023-02-28T07:06:10;27.67;;;8.15;;
44120;SDS011;29783;52.504;13.478;2023-02-28T07:08:36;24.20;;;12.40;;
44120;SDS011;29783;52.504;13.478;2023-02-28T07:11:02;31.15;;;11.43;;
44120;SDS011;29783;52.504;13.478;2023-02-28T07:13:29;23.45;;;10.80;;
44120;SDS011;29783;52.504;13.478;2023-02-28T07:15:59;16.92;;;9.55;;
44120;SDS011;29783;52.504;13.478;2023-02-28T07:18:26;21.27;;;10.27;;
44120;SDS011;29783;52.504;13.478;2023-02-28T07:20:52;16.05;;;7.30;;
44120;SDS011;29783;52.504;13.478;2023-02-28T07:23:18;17.55;;;7.38;;
44120;SDS011;29783;52.504;13.478;2023-02-28T07:25:44;15.65;;;7.15;;
44120;SDS011;29783;52.504;13.478;2023-02-28T07:28:10;14.63;;;6.10;;
44120;SDS011;29783;52.504;13.478;2023-02-28T07:30:36;11.70;;;6.32;;
44120;SDS011;29783;52.504;13.478;2023-02-28T07:33:02;15.18;;;6.60;;
44120;SDS011;29783;52.504;13.478;2023-02-28T07:35:28;11.85;;;6.65;;
44120;SDS011;29783;52.504;13.478;2023-02-28T07:37:55;16.45;;;6.35;;
44120;SDS011;29783;52.504;13.478;2023-02-28T07:40:23;14.75;;;6.13;;
44120;SDS011;29783;52.504;13.478;2023-02-28T07:42:48;23.70;;;8.00;;
44120;SDS011;29783;52.504;13.478;2023-02-28T07:45:14;17.08;;;7.05;;
44120;SDS011;29783;52.504;13.478;2023-02-28T07:47:41;12.70;;;5.70;;
44120;SDS011;29783;52.504;13.478;2023-02-28T07:50:08;11.48;;;4.68;;
44120;SDS011;29783;52.504;13.478;2023-02-28T07:52:39;17.00;;;4.68;;
44120;SDS011;29783;52.504;13.478;2023-02-28T07:55:06;13.60;;;4.20;;
44120;SDS011;29783;52.504;13.478;2023-02-28T07:57:33;9.13;;;4.40;;
44120;SDS011;29783;52.504;13.478;2023-02-28T07:59:59;8.57;;;4.28;;
44120;SDS011;29783;52.504;13.478;2023-02-28T08:02:24;7.25;;;3.63;;
44120;SDS011;29783;52.504;13.478;2023-02-28T08:04:50;6.47;;;3.10;;
44120;SDS011;29783;52.504;13.478;2023-02-28T08:07:17;13.10;;;4.20;;
44120;SDS011;29783;52.504;13.478;2023-02-28T08:09:43;5.90;;;2.97;;
44120;SDS011;29783;52.504;13.478;2023-02-28T08:12:10;6.47;;;3.50;;
44120;SDS011;29783;52.504;13.478;2023-02-28T08:14:37;7.20;;;3.92;;
44120;SDS011;29783;52.504;13.478;2023-02-28T08:17:03;10.07;;;3.88;;
44120;SDS011;29783;52.504;13.478;2023-02-28T08:19:29;10.05;;;3.72;;
44120;SDS011;29783;52.504;13.478;2023-02-28T08:21:55;8.70;;;4.05;;
44120;SDS011;29783;52.504;13.478;2023-02-28T08:24:22;11.95;;;3.30;;
44120;SDS011;29783;52.504;13.478;2023-02-28T08:26:48;6.25;;;2.95;;
44120;SDS011;29783;52.504;13.478;2023-02-28T08:29:14;5.75;;;2.60;;
44120;SDS011;29783;52.504;13.478;2023-02-28T08:31:39;6.32;;;2.35;;
44120;SDS011;29783;52.504;13.478;2023-02-28T08:34:09;4.97;;;2.13;;
44120;SDS011;29783;52.504;13.478;2023-02-28T08:36:37;4.45;;;2.50;;
44120;SDS011;29783;52.504;13.478;2023-02-28T08:39:03;4.65;;;2.35;;
44120;SDS011;29783;52.504;13.478;2023-02-28T08:41:33;9.38;;;2.30;;
44120;SDS011;29783;52.504;13.478;2023-02-28T08:43:59;3.90;;;2.22;;
44120;SDS011;29783;52.504;13.478;2023-02-28T08:46:27;4.68;;;2.17;;
44120;SDS011;29783;52.504;13.478;2023-02-28T08:48:54;4.13;;;1.92;;
44120;SDS011;29783;52.504;13.478;2023-02-28T08:51:24;6.72;;;2.55;;
44120;SDS011;29783;52.504;13.478;2023-02-28T08:53:53;3.58;;;1.77;;
44120;SDS011;29783;52.504;13.478;2023-02-28T08:56:25;5.00;;;1.90;;
44120;SDS011;29783;52.504;13.478;2023-02-28T08:58:53;10.25;;;2.13;;
44120;SDS011;29783;52.504;13.478;2023-02-28T09:01:22;5.53;;;1.88;;
44120;SDS011;29783;52.504;13.478;2023-02-28T09:03:52;3.50;;;1.63;;
44120;SDS011;29783;52.504;13.478;2023-02-28T09:06:19;3.95;;;2.00;;
44120;SDS011;29783;52.504;13.478;2023-02-28T09:08:47;4.32;;;1.65;;
44120;SDS011;29783;52.504;13.478;2023-02-28T09:11:14;3.05;;;1.27;;
44120;SDS011;29783;52.504;13.478;2023-02-28T09:13:40;7.55;;;1.60;;
44120;SDS011;29783;52.504;13.478;2023-02-28T09:16:07;3.30;;;1.52;;
44120;SDS011;29783;52.504;13.478;2023-02-28T09:18:36;3.13;;;1.95;;
44120;SDS011;29783;52.504;13.478;2023-02-28T09:21:06;4.57;;;2.25;;
44120;SDS011;29783;52.504;13.478;2023-02-28T09:23:33;3.75;;;2.10;;
44120;SDS011;29783;52.504;13.478;2023-02-28T09:25:59;6.25;;;1.55;;
44120;SDS011;29783;52.504;13.478;2023-02-28T09:28:25;1.42;;;1.08;;
44120;SDS011;29783;52.504;13.478;2023-02-28T09:30:52;2.90;;;1.20;;
44120;SDS011;29783;52.504;13.478;2023-02-28T09:33:19;2.42;;;1.75;;
44120;SDS011;29783;52.504;13.478;2023-02-28T09:35:47;3.70;;;1.70;;
44120;SDS011;29783;52.504;13.478;2023-02-28T09:38:13;3.42;;;1.95;;
44120;SDS011;29783;52.504;13.478;2023-02-28T09:40:45;4.35;;;2.17;;
44120;SDS011;29783;52.504;13.478;2023-02-28T09:43:17;4.60;;;1.70;;
44120;SDS011;29783;52.504;13.478;2023-02-28T09:45:54;3.75;;;1.92;;
44120;SDS011;29783;52.504;13.478;2023-02-28T09:48:28;2.70;;;1.80;;
44120;SDS011;29783;52.504;13.478;2023-02-28T09:51:04;5.65;;;2.22;;
44120;SDS011;29783;52.504;13.478;2023-02-28T09:53:36;1.70;;;1.02;;
44120;SDS011;29783;52.504;13.478;2023-02-28T09:56:08;2.22;;;1.40;;
44120;SDS011;29783;52.504;13.478;2023-02-28T09:58:46;5.78;;;1.15;;
44120;SDS011;29783;52.504;13.478;2023-02-28T10:01:21;7.65;;;1.70;;
44120;SDS011;29783;52.504;13.478;2023-02-28T10:04:33;2.20;;;1.20;;
44120;SDS011;29783;52.504;13.478;2023-02-28T10:07:01;2.88;;;1.10;;
44120;SDS011;29783;52.504;13.478;2023-02-28T10:09:42;2.95;;;1.70;;
44120;SDS011;29783;52.504;13.478;2023-02-28T10:12:10;7.43;;;1.42;;
44120;SDS011;29783;52.504;13.478;2023-02-28T10:14:37;7.78;;;1.08;;
44120;SDS011;29783;52.504;13.478;2023-02-28T10:17:13;2.13;;;1.20;;
44120;SDS011;29783;52.504;13.478;2023-02-28T10:25:37;1.77;;;1.10;;
44120;SDS011;29783;52.504;13.478;2023-02-28T10:28:14;2.53;;;1.40;;
44120;SDS011;29783;52.504;13.478;2023-02-28T10:30:44;3.08;;;1.10;;
44120;SDS011;29783;52.504;13.478;2023-02-28T10:33:26;3.20;;;1.52;;
44120;SDS011;29783;52.504;13.478;2023-02-28T10:35:53;6.40;;;1.92;;
44120;SDS011;29783;52.504;13.478;2023-02-28T10:38:21;3.33;;;1.67;;
44120;SDS011;29783;52.504;13.478;2023-02-28T10:40:49;5.78;;;1.50;;
44120;SDS011;29783;52.504;13.478;2023-02-28T10:46:23;9.25;;;1.58;;
44120;SDS011;29783;52.504;13.478;2023-02-28T10:48:37;3.45;;;1.58;;
44120;SDS011;29783;52.504;13.478;2023-02-28T10:51:05;3.22;;;1.60;;
44120;SDS011;29783;52.504;13.478;2023-02-28T10:53:51;2.47;;;1.40;;
44120;SDS011;29783;52.504;13.478;2023-02-28T10:56:20;4.32;;;2.08;;
44120;SDS011;29783;52.504;13.478;2023-02-28T11:01:58;4.97;;;2.28;;
44120;SDS011;29783;52.504;13.478;2023-02-28T11:04:16;2.83;;;2.00;;
44120;SDS011;29783;52.504;13.478;2023-02-28T11:06:44;4.63;;;2.03;;
44120;SDS011;29783;52.504;13.478;2023-02-28T11:09:19;3.63;;;2.00;;
44120;SDS011;29783;52.504;13.478;2023-02-28T11:11:47;3.03;;;2.00;;
44120;SDS011;29783;52.504;13.478;2023-02-28T11:14:19;4.63;;;2.42;;
44120;SDS011;29783;52.504;13.478;2023-02-28T11:16:47;5.22;;;2.67;;
44120;SDS011;29783;52.504;13.478;2023-02-28T11:19:25;2.70;;;1.90;;
44120;SDS011;29783;52.504;13.478;2023-02-28T11:22:03;2.90;;;2.25;;
44120;SDS011;29783;52.504;13.478;2023-02-28T11:27:11;5.72;;;2.13;;
44120;SDS011;29783;52.504;13.478;2023-02-28T11:29:55;5.38;;;2.05;;
44120;SDS011;29783;52.504;13.478;2023-02-28T11:32:22;3.88;;;2.20;;
44120;SDS011;29783;52.504;13.478;2023-02-28T11:35:34;8.27;;;2.25;;
44120;SDS011;29783;52.504;13.478;2023-02-28T11:37:35;2.78;;;1.92;;
44120;SDS011;29783;52.504;13.478;2023-02-28T11:40:00;4.38;;;2.17;;
44120;SDS011;29783;52.504;13.478;2023-02-28T11:42:42;5.82;;;2.58;;
44120;SDS011;29783;52.504;13.478;2023-02-28T11:53:14;6.43;;;2.13;;
44120;SDS011;29783;52.504;13.478;2023-02-28T11:58:45;3.97;;;2.00;;
44120;SDS011;29783;52.504;13.478;2023-02-28T12:07:43;3.63;;;2.10;;
44120;SDS011;29783;52.504;13.478;2023-02-28T12:10:26;6.45;;;2.20;;
44120;SDS011;29783;52.504;13.478;2023-02-28T12:18:23;2.80;;;1.90;;
44120;SDS011;29783;52.504;13.478;2023-02-28T12:20:54;4.70;;;1.95;;
44120;SDS011;29783;52.504;13.478;2023-02-28T12:29:15;5.47;;;1.70;;
44120;SDS011;29783;52.504;13.478;2023-02-28T12:32:12;3.67;;;2.05;;
44120;SDS011;29783;52.504;13.478;2023-02-28T12:34:39;4.93;;;2.10;;
44120;SDS011;29783;52.504;13.478;2023-02-28T12:37:17;2.78;;;1.73;;
44120;SDS011;29783;52.504;13.478;2023-02-28T12:39:51;5.80;;;2.42;;
44120;SDS011;29783;52.504;13.478;2023-02-28T12:42:28;3.75;;;1.88;;
44120;SDS011;29783;52.504;13.478;2023-02-28T12:44:58;3.15;;;1.60;;
44120;SDS011;29783;52.504;13.478;2023-02-28T12:47:27;9.07;;;2.03;;
44120;SDS011;29783;52.504;13.478;2023-02-28T12:49:56;7.90;;;2.08;;
44120;SDS011;29783;52.504;13.478;2023-02-28T12:52:28;3.38;;;1.40;;
44120;SDS011;29783;52.504;13.478;2023-02-28T12:55:27;4.30;;;1.83;;
44120;SDS011;29783;52.504;13.478;2023-02-28T12:58:12;4.45;;;2.00;;
44120;SDS011;29783;52.504;13.478;2023-02-28T13:04:24;2.97;;;1.50;;
44120;SDS011;29783;52.504;13.478;2023-02-28T13:10:15;4.32;;;2.65;;
44120;SDS011;29783;52.504;13.478;2023-02-28T13:12:47;3.53;;;2.00;;
44120;SDS011;29783;52.504;13.478;2023-02-28T13:17:48;3.08;;;2.13;;
44120;SDS011;29783;52.504;13.478;2023-02-28T13:20:15;2.85;;;1.95;;
44120;SDS011;29783;52.504;13.478;2023-02-28T13:22:48;3.40;;;2.00;;
44120;SDS011;29783;52.504;13.478;2023-02-28T13:27:48;6.57;;;1.88;;
44120;SDS011;29783;52.504;13.478;2023-02-28T13:36:10;3.60;;;1.92;;
44120;SDS011;29783;52.504;13.478;2023-02-28T13:38:47;2.22;;;1.60;;
44120;SDS011;29783;52.504;13.478;2023-02-28T13:44:04;3.55;;;2.00;;
44120;SDS011;29783;52.504;13.478;2023-02-28T13:51:51;3.60;;;1.98;;
44120;SDS011;29783;52.504;13.478;2023-02-28T13:59:50;4.47;;;2.42;;
44120;SDS011;29783;52.504;13.478;2023-02-28T14:05:30;4.38;;;1.88;;
44120;SDS011;29783;52.504;13.478;2023-02-28T14:07:59;2.42;;;1.80;;
44120;SDS011;29783;52.504;13.478;2023-02-28T14:10:45;6.20;;;2.70;;
44120;SDS011;29783;52.504;13.478;2023-02-28T14:16:17;4.97;;;2.28;;
44120;SDS011;29783;52.504;13.478;2023-02-28T14:18:51;3.63;;;2.15;;
44120;SDS011;29783;52.504;13.478;2023-02-28T14:21:27;3.40;;;2.10;;
44120;SDS011;29783;52.504;13.478;2023-02-28T14:24:04;5.05;;;2.55;;
44120;SDS011;29783;52.504;13.478;2023-02-28T14:29:39;5.72;;;2.40;;
44120;SDS011;29783;52.504;13.478;2023-02-28T14:37:54;3.97;;;2.60;;
44120;SDS011;29783;52.504;13.478;2023-02-28T14:40:22;6.05;;;2.40;;
44120;SDS011;29783;52.504;13.478;2023-02-28T14:43:00;6.82;;;2.40;;
44120;SDS011;29783;52.504;13.478;2023-02-28T14:45:31;6.05;;;2.70;;
44120;SDS011;29783;52.504;13.478;2023-02-28T14:48:00;4.70;;;2.47;;
44120;SDS011;29783;52.504;13.478;2023-02-28T14:50:31;4.35;;;2.80;;
44120;SDS011;29783;52.504;13.478;2023-02-28T14:52:59;3.05;;;2.45;;
44120;SDS011;29783;52.504;13.478;2023-02-28T14:55:28;5.68;;;2.50;;
44120;SDS011;29783;52.504;13.478;2023-02-28T14:57:57;3.47;;;2.40;;
44120;SDS011;29783;52.504;13.478;2023-02-28T15:00:28;3.78;;;2.30;;
44120;SDS011;29783;52.504;13.478;2023-02-28T15:02:56;4.80;;;2.30;;
44120;SDS011;29783;52.504;13.478;2023-02-28T15:05:31;3.30;;;2.30;;
44120;SDS011;29783;52.504;13.478;2023-02-28T15:08:31;3.78;;;2.88;;
44120;SDS011;29783;52.504;13.478;2023-02-28T15:11:07;3.90;;;2.63;;
44120;SDS011;29783;52.504;13.478;2023-02-28T15:13:39;6.13;;;2.60;;
44120;SDS011;29783;52.504;13.478;2023-02-28T15:16:11;3.42;;;2.33;;
44120;SDS011;29783;52.504;13.478;2023-02-28T15:18:44;6.65;;;2.33;;
44120;SDS011;29783;52.504;13.478;2023-02-28T15:21:15;4.78;;;2.53;;
44120;SDS011;29783;52.504;13.478;2023-02-28T15:23:44;4.32;;;2.67;;
44120;SDS011;29783;52.504;13.478;2023-02-28T15:26:16;3.35;;;2.33;;
44120;SDS011;29783;52.504;13.478;2023-02-28T15:28:47;11.48;;;3.25;;
44120;SDS011;29783;52.504;13.478;2023-02-28T15:31:27;5.95;;;2.50;;
44120;SDS011;29783;52.504;13.478;2023-02-28T15:34:05;4.00;;;2.50;;
44120;SDS011;29783;52.504;13.478;2023-02-28T15:36:41;8.48;;;2.50;;
44120;SDS011;29783;52.504;13.478;2023-02-28T15:39:20;3.75;;;2.10;;
44120;SDS011;29783;52.504;13.478;2023-02-28T15:41:47;5.25;;;2.80;;
44120;SDS011;29783;52.504;13.478;2023-02-28T15:44:17;5.63;;;2.60;;
44120;SDS011;29783;52.504;13.478;2023-02-28T15:46:58;4.03;;;2.45;;
44120;SDS011;29783;52.504;13.478;2023-02-28T15:49:51;4.22;;;2.30;;
44120;SDS011;29783;52.504;13.478;2023-02-28T15:55:07;3.53;;;2.63;;
44120;SDS011;29783;52.504;13.478;2023-02-28T15:57:53;5.30;;;2.70;;
44120;SDS011;29783;52.504;13.478;2023-02-28T16:00:24;4.97;;;2.97;;
44120;SDS011;29783;52.504;13.478;2023-02-28T16:02:51;3.33;;;2.47;;
44120;SDS011;29783;52.504;13.478;2023-02-28T16:05:18;4.43;;;2.70;;
44120;SDS011;29783;52.504;13.478;2023-02-28T16:07:45;3.85;;;2.35;;
44120;SDS011;29783;52.504;13.478;2023-02-28T16:10:13;7.13;;;2.80;;
44120;SDS011;29783;52.504;13.478;2023-02-28T16:12:39;6.53;;;2.63;;
44120;SDS011;29783;52.504;13.478;2023-02-28T16:15:16;4.15;;;2.80;;
44120;SDS011;29783;52.504;13.478;2023-02-28T16:17:45;3.42;;;2.28;;
44120;SDS011;29783;52.504;13.478;2023-02-28T16:22:43;9.70;;;2.65;;
44120;SDS011;29783;52.504;13.478;2023-02-28T16:25:14;4.80;;;2.42;;
44120;SDS011;29783;52.504;13.478;2023-02-28T16:27:42;4.75;;;2.58;;
44120;SDS011;29783;52.504;13.478;2023-02-28T16:30:15;4.30;;;2.88;;
44120;SDS011;29783;52.504;13.478;2023-02-28T16:32:50;7.55;;;3.22;;
44120;SDS011;29783;52.504;13.478;2023-02-28T16:35:16;9.27;;;3.35;;
44120;SDS011;29783;52.504;13.478;2023-02-28T16:37:55;6.95;;;3.83;;
44120;SDS011;29783;52.504;13.478;2023-02-28T16:40:39;6.68;;;3.38;;
44120;SDS011;29783;52.504;13.478;2023-02-28T16:43:16;4.97;;;3.33;;
44120;SDS011;29783;52.504;13.478;2023-02-28T16:45:44;7.25;;;3.55;;
44120;SDS011;29783;52.504;13.478;2023-02-28T16:48:11;6.05;;;3.17;;
44120;SDS011;29783;52.504;13.478;2023-02-28T16:50:39;9.00;;;3.45;;
44120;SDS011;29783;52.504;13.478;2023-02-28T16:53:04;7.22;;;4.07;;
44120;SDS011;29783;52.504;13.478;2023-02-28T16:55:30;9.90;;;3.50;;
44120;SDS011;29783;52.504;13.478;2023-02-28T16:57:57;6.07;;;4.00;;